Time;durP1;ratioP1;P1;durP2;ratioP2;P2;SDS_P1;SDS_P2;PMS_P1;PMS_P2;Temp;Humidity;BMP_temperature;BMP_pressure;BME280_temperature;BME280_humidity;BME280_pressure;Samples;Min_cycle;Max_cycle;Signal;HPM_P1;HPM_P2
2022/06/05 00:02:11;;;;;;;9.40;8.50;;;17.90;99.90;;;;;;4972638;28;20618;-74
2022/06/05 00:04:57;;;;;;;9.43;8.60;;;17.90;99.90;;;;;;4972976;28;20443;-74
2022/06/05 00:07:43;;;;;;;9.83;8.97;;;17.80;99.90;;;;;;4973023;28;20415;-75
2022/06/05 00:10:22;;;;;;;11.27;9.63;;;17.70;99.90;;;;;;4972876;28;20403;-73
2022/06/05 00:13:02;;;;;;;10.87;9.10;;;17.70;99.90;;;;;;4972793;28;20434;-73
2022/06/05 00:15:27;;;;;;;10.37;9.37;;;17.70;99.90;;;;;;4973178;28;20445;-74
2022/06/05 00:17:53;;;;;;;10.83;9.50;;;17.60;99.90;;;;;;4972990;28;20424;-74
2022/06/05 00:20:19;;;;;;;11.17;9.27;;;17.60;99.90;;;;;;4972994;28;20176;-74
2022/06/05 00:22:46;;;;;;;9.70;8.80;;;17.50;99.90;;;;;;4972715;28;20254;-74
2022/06/05 00:25:13;;;;;;;10.23;9.20;;;17.50;99.90;;;;;;4972681;28;20411;-74
2022/06/05 00:27:50;;;;;;;10.27;9.47;;;17.50;99.90;;;;;;4973036;28;20417;-74
2022/06/05 00:30:29;;;;;;;9.00;8.23;;;17.40;99.90;;;;;;4972827;28;20421;-74
2022/06/05 00:33:06;;;;;;;9.13;8.43;;;17.40;99.90;;;;;;4971051;28;20499;-74
2022/06/05 00:35:45;;;;;;;10.43;9.57;;;17.40;99.90;;;;;;4972848;28;20841;-74
2022/06/05 00:38:35;;;;;;;10.13;9.13;;;17.30;99.90;;;;;;4972812;28;20904;-74
2022/06/05 00:41:16;;;;;;;12.30;9.50;;;17.30;99.90;;;;;;4972323;28;20530;-74
2022/06/05 00:43:42;;;;;;;10.17;9.20;;;17.30;99.90;;;;;;4972799;28;20471;-73
2022/06/05 00:46:07;;;;;;;10.50;9.60;;;17.20;99.90;;;;;;4972495;28;20422;-74
2022/06/05 00:48:33;;;;;;;9.70;8.90;;;17.20;99.90;;;;;;4972821;28;20184;-74
2022/06/05 00:50:59;;;;;;;9.57;8.77;;;17.20;99.90;;;;;;4972065;28;20187;-73
2022/06/05 00:53:24;;;;;;;9.57;8.67;;;17.10;99.90;;;;;;4972690;28;20645;-75
2022/06/05 00:55:51;;;;;;;9.37;8.57;;;17.10;99.90;;;;;;4972599;28;20235;-73
2022/06/05 00:58:18;;;;;;;8.93;8.23;;;17.10;99.90;;;;;;4976170;28;20230;-74
2022/06/05 02:31:41;;;;;;;10.83;9.93;;;16.90;99.90;;;;;;5759939;23;20551;-71
2022/06/05 02:34:22;;;;;;;12.07;11.07;;;16.90;99.90;;;;;;5010604;28;20475;-74
2022/06/05 02:36:56;;;;;;;13.63;10.53;;;16.90;99.90;;;;;;5011200;28;20457;-75
2022/06/05 02:39:41;;;;;;;11.83;10.70;;;16.90;99.90;;;;;;5005024;28;20503;-74
2022/06/05 02:42:12;;;;;;;11.90;10.70;;;16.90;99.90;;;;;;5011854;28;21055;-75
2022/06/05 02:45:14;;;;;;;12.77;11.33;;;16.90;99.90;;;;;;5012164;28;20417;-75
2022/06/05 02:47:50;;;;;;;17.53;12.03;;;17.00;99.90;;;;;;5012536;28;20415;-74
2022/06/05 02:50:22;;;;;;;12.20;11.00;;;17.00;99.90;;;;;;5012639;28;20421;-74
2022/06/05 02:52:49;;;;;;;16.13;10.57;;;17.00;99.90;;;;;;5011853;28;20421;-75
2022/06/05 02:55:18;;;;;;;13.07;11.70;;;17.00;99.90;;;;;;5012398;28;20414;-74
2022/06/05 02:57:45;;;;;;;12.70;11.70;;;17.00;99.90;;;;;;5012088;28;20409;-74
2022/06/05 03:00:19;;;;;;;14.83;11.97;;;17.10;99.90;;;;;;5012046;28;20409;-72
2022/06/05 03:05:29;;;;;;;12.43;11.40;;;17.20;99.90;;;;;;5012278;28;20467;-75
2022/06/05 03:07:55;;;;;;;13.57;12.17;;;17.20;99.90;;;;;;5012114;28;20504;-74
2022/06/05 03:10:20;;;;;;;13.77;12.37;;;17.30;99.90;;;;;;5011974;28;20167;-74
2022/06/05 03:12:46;;;;;;;13.10;11.90;;;17.30;99.90;;;;;;5010946;28;20436;-74
2022/06/05 03:15:12;;;;;;;12.63;11.37;;;17.30;99.90;;;;;;5011696;28;20178;-74
2022/06/05 03:17:37;;;;;;;13.93;12.70;;;17.30;99.90;;;;;;5012045;28;20178;-74
2022/06/05 03:20:04;;;;;;;12.33;11.13;;;17.30;99.90;;;;;;5011537;28;20202;-74
2022/06/05 03:22:30;;;;;;;12.50;11.30;;;17.20;99.90;;;;;;5010874;28;20296;-72
2022/06/05 03:24:55;;;;;;;11.60;10.53;;;17.20;99.90;;;;;;5011819;28;20508;-74
2022/06/05 03:27:21;;;;;;;13.00;11.80;;;17.30;99.90;;;;;;5011664;28;20221;-74
2022/06/05 03:29:47;;;;;;;12.40;11.13;;;17.30;99.90;;;;;;5011631;28;20225;-74
2022/06/05 03:32:13;;;;;;;14.00;11.10;;;17.30;99.90;;;;;;5010775;28;20210;-74
2022/06/05 03:34:38;;;;;;;12.70;11.60;;;17.40;99.90;;;;;;5011783;28;20175;-74
2022/06/05 03:37:04;;;;;;;13.30;12.07;;;17.40;99.90;;;;;;5011545;28;20542;-73
2022/06/05 03:39:33;;;;;;;12.77;11.67;;;17.40;99.90;;;;;;5011494;28;20615;-72
2022/06/05 03:41:59;;;;;;;12.57;11.27;;;17.40;99.90;;;;;;5010658;28;20817;-73
2022/06/05 03:44:28;;;;;;;13.23;12.07;;;17.50;99.90;;;;;;5011895;28;20910;-74
2022/06/05 03:46:54;;;;;;;12.90;11.80;;;17.40;99.90;;;;;;5011496;28;20413;-74
2022/06/05 03:49:19;;;;;;;13.63;12.30;;;17.50;99.90;;;;;;5011375;28;20412;-74
2022/06/05 03:51:45;;;;;;;12.43;11.13;;;17.40;99.90;;;;;;5010352;28;20328;-73
2022/06/05 03:54:11;;;;;;;12.30;11.20;;;17.40;99.90;;;;;;5011060;28;20202;-73
2022/06/05 03:56:38;;;;;;;13.37;10.90;;;17.50;99.90;;;;;;5011257;28;20417;-73
2022/06/05 03:59:04;;;;;;;12.33;11.13;;;17.50;99.90;;;;;;5011138;28;20445;-74
2022/06/05 04:01:29;;;;;;;13.30;12.20;;;17.50;99.90;;;;;;5010674;28;20563;-72
2022/06/05 04:03:56;;;;;;;13.60;11.90;;;17.50;99.90;;;;;;5010645;28;20217;-73
2022/06/05 04:06:29;;;;;;;13.37;11.97;;;17.50;99.90;;;;;;5011037;28;20214;-74
2022/06/05 04:08:57;;;;;;;13.30;11.70;;;17.50;99.90;;;;;;5011206;28;20472;-74
2022/06/05 04:11:23;;;;;;;13.23;12.00;;;17.50;99.90;;;;;;5010313;28;20924;-75
2022/06/05 04:13:49;;;;;;;14.23;12.77;;;17.60;99.90;;;;;;5011359;28;20472;-74
2022/06/05 04:16:19;;;;;;;21.30;14.00;;;17.60;99.90;;;;;;5010723;28;20424;-75
2022/06/05 04:18:44;;;;;;;15.90;13.80;;;17.50;99.90;;;;;;5010355;28;20426;-74
2022/06/05 04:21:13;;;;;;;15.90;14.40;;;17.40;99.90;;;;;;5010043;28;20856;-74
2022/06/05 04:23:40;;;;;;;19.50;15.57;;;17.40;99.90;;;;;;5010901;28;20625;-74
2022/06/05 04:26:07;;;;;;;18.30;16.27;;;17.30;99.90;;;;;;5010775;28;20933;-75
2022/06/05 04:28:33;;;;;;;20.80;16.27;;;17.20;99.90;;;;;;5010527;28;20414;-75
2022/06/05 04:30:58;;;;;;;19.73;16.47;;;17.20;99.90;;;;;;5011919;28;20456;-73
2022/06/05 04:33:24;;;;;;;19.20;16.83;;;17.20;99.90;;;;;;5015318;28;20539;-76
2022/06/05 04:35:49;;;;;;;18.87;16.80;;;17.10;99.90;;;;;;5014201;28;20190;-74
2022/06/05 04:38:15;;;;;;;19.00;17.10;;;17.10;99.90;;;;;;5014304;28;20774;-74
2022/06/05 04:40:41;;;;;;;21.87;17.27;;;17.10;99.90;;;;;;5014010;28;20179;-74
2022/06/05 04:43:08;;;;;;;20.27;18.03;;;17.10;99.90;;;;;;5014019;28;20293;-74
2022/06/05 04:45:34;;;;;;;20.37;17.83;;;17.10;99.90;;;;;;5013727;28;20178;-76
2022/06/05 04:47:59;;;;;;;21.03;17.80;;;17.00;99.90;;;;;;5014510;28;20895;-73
2022/06/05 04:50:25;;;;;;;17.73;16.03;;;17.00;99.90;;;;;;5013825;28;20468;-74
2022/06/05 04:52:50;;;;;;;19.43;17.50;;;17.00;99.90;;;;;;5013940;28;20306;-74
2022/06/05 04:55:16;;;;;;;20.27;18.07;;;17.00;99.90;;;;;;5013978;28;20197;-74
2022/06/05 04:57:43;;;;;;;21.07;17.80;;;16.90;99.90;;;;;;5014643;28;20186;-75
2022/06/05 05:00:10;;;;;;;20.27;18.20;;;17.00;99.90;;;;;;5014356;28;20182;-75
2022/06/05 05:02:36;;;;;;;21.97;19.70;;;17.00;99.90;;;;;;5013825;28;20459;-75
2022/06/05 05:05:02;;;;;;;20.63;18.67;;;17.00;99.90;;;;;;5013582;28;20410;-75
2022/06/05 05:07:28;;;;;;;21.57;19.47;;;17.00;99.90;;;;;;5013986;28;20797;-75
2022/06/05 05:09:53;;;;;;;27.70;20.13;;;17.00;99.90;;;;;;5014483;28;20190;-74
2022/06/05 05:12:19;;;;;;;22.57;20.23;;;17.00;99.90;;;;;;5012837;28;20578;-75
2022/06/05 05:14:45;;;;;;;26.30;21.00;;;17.00;99.90;;;;;;5013991;28;20178;-75
2022/06/05 05:17:11;;;;;;;22.13;19.93;;;17.00;99.90;;;;;;5013774;28;20225;-74
2022/06/05 05:19:36;;;;;;;23.67;21.03;;;17.00;99.90;;;;;;5013209;28;20190;-74
2022/06/05 05:22:02;;;;;;;23.63;21.20;;;17.00;99.90;;;;;;5012720;28;20807;-75
2022/06/05 05:24:27;;;;;;;23.27;20.53;;;17.00;99.90;;;;;;5013577;28;20183;-74
2022/06/05 05:26:53;;;;;;;26.00;21.93;;;17.00;99.90;;;;;;5013553;28;20229;-74
2022/06/05 05:29:19;;;;;;;24.43;21.73;;;17.00;99.90;;;;;;5013053;28;20189;-75
2022/06/05 05:31:45;;;;;;;23.37;20.70;;;17.00;99.90;;;;;;5012655;28;20589;-75
2022/06/05 05:34:13;;;;;;;25.47;22.60;;;17.00;99.90;;;;;;5013129;28;20171;-72
2022/06/05 05:36:38;;;;;;;26.60;21.67;;;17.00;99.90;;;;;;5013283;28;20413;-74
2022/06/05 05:42:07;;;;;;;28.77;22.07;;;17.00;99.90;;;;;;5012369;28;20365;-75
2022/06/05 05:44:47;;;;;;;27.87;23.77;;;16.90;99.90;;;;;;5013153;28;20508;-75
2022/06/05 05:47:26;;;;;;;25.57;22.87;;;16.90;99.90;;;;;;5012378;28;20764;-74
2022/06/05 05:49:54;;;;;;;28.77;23.40;;;16.90;99.90;;;;;;5013398;28;20424;-75
2022/06/05 05:52:20;;;;;;;30.07;25.17;;;16.90;99.90;;;;;;5012276;28;20440;-72
2022/06/05 05:54:45;;;;;;;25.70;22.70;;;16.90;99.90;;;;;;5012632;28;20425;-73
2022/06/05 05:57:11;;;;;;;25.83;22.77;;;16.90;99.90;;;;;;5012649;28;20924;-70
2022/06/05 05:59:37;;;;;;;26.27;22.03;;;16.90;99.90;;;;;;5013164;28;20194;-73
2022/06/05 06:02:06;;;;;;;25.50;20.83;;;16.90;99.90;;;;;;5012229;28;20206;-73
2022/06/05 06:04:31;;;;;;;24.23;21.33;;;17.00;99.90;;;;;;5013074;28;20422;-72
2022/06/05 06:06:57;;;;;;;24.77;21.50;;;16.90;99.90;;;;;;5013276;28;20921;-73
2022/06/05 06:09:23;;;;;;;24.60;22.10;;;16.90;99.90;;;;;;5012037;28;20189;-73
2022/06/05 06:11:48;;;;;;;24.33;21.83;;;16.90;99.90;;;;;;5012313;28;20202;-73
2022/06/05 06:14:14;;;;;;;25.00;22.40;;;16.90;99.90;;;;;;5012397;28;20181;-73
2022/06/05 06:16:39;;;;;;;26.20;22.07;;;16.90;99.90;;;;;;5012154;28;20382;-73
2022/06/05 06:19:05;;;;;;;25.07;21.87;;;17.00;99.90;;;;;;5012559;28;20261;-73
2022/06/05 06:21:31;;;;;;;27.27;21.97;;;16.90;99.90;;;;;;5011966;28;20662;-71
2022/06/05 06:23:56;;;;;;;27.10;22.07;;;16.90;99.90;;;;;;5012668;28;20210;-74
2022/06/05 06:26:22;;;;;;;22.07;19.97;;;16.90;99.90;;;;;;5012719;28;20179;-73
2022/06/05 06:28:48;;;;;;;20.77;18.43;;;16.90;99.90;;;;;;5012087;28;20185;-73
2022/06/05 06:31:16;;;;;;;20.57;15.73;;;16.80;99.90;;;;;;5011525;28;20224;-71
2022/06/05 06:33:42;;;;;;;18.77;16.83;;;16.80;99.90;;;;;;5012558;28;20179;-71
2022/06/05 06:36:11;;;;;;;16.60;15.00;;;16.80;99.90;;;;;;5012512;28;20417;-73
2022/06/05 06:38:37;;;;;;;16.97;15.07;;;16.80;99.90;;;;;;5012576;28;20485;-73
2022/06/05 06:41:08;;;;;;;18.00;16.20;;;16.80;99.90;;;;;;5011893;28;20528;-73
2022/06/05 06:43:34;;;;;;;18.20;15.97;;;16.70;99.90;;;;;;5011410;28;20834;-72
2022/06/05 06:45:59;;;;;;;17.57;15.33;;;16.70;99.90;;;;;;5012418;28;20496;-71
2022/06/05 06:48:26;;;;;;;19.70;14.40;;;16.70;99.90;;;;;;5012178;28;20516;-73
2022/06/05 06:50:54;;;;;;;17.60;13.00;;;16.70;99.90;;;;;;5010873;28;20233;-73
2022/06/05 06:53:20;;;;;;;15.73;14.00;;;16.70;99.90;;;;;;5011029;28;20742;-73
2022/06/05 06:55:46;;;;;;;16.03;13.87;;;16.70;99.90;;;;;;5011940;28;20422;-73
2022/06/05 06:58:11;;;;;;;14.90;13.30;;;16.70;99.90;;;;;;5011700;28;20429;-71
2022/06/05 07:00:37;;;;;;;14.97;13.37;;;16.70;99.90;;;;;;5011293;28;20187;-71
2022/06/05 07:03:03;;;;;;;15.37;13.10;;;16.70;99.90;;;;;;5011391;28;20579;-72
2022/06/05 07:05:28;;;;;;;13.10;11.80;;;16.70;99.90;;;;;;5012048;28;20257;-73
2022/06/05 07:07:54;;;;;;;12.77;11.33;;;16.80;99.90;;;;;;5012036;28;20182;-72
2022/06/05 07:10:19;;;;;;;12.50;11.20;;;16.80;99.90;;;;;;5011414;28;20690;-73
2022/06/05 07:12:47;;;;;;;14.87;12.47;;;16.80;99.90;;;;;;5011061;28;20202;-73
2022/06/05 07:15:13;;;;;;;14.10;12.70;;;16.80;99.90;;;;;;5009425;28;20558;-73
2022/06/05 07:17:38;;;;;;;17.77;13.60;;;16.80;99.90;;;;;;5011661;28;20437;-73
2022/06/05 07:20:05;;;;;;;13.67;12.27;;;16.80;99.90;;;;;;5011451;28;20182;-73
2022/06/05 07:22:30;;;;;;;14.80;12.87;;;16.80;99.90;;;;;;5010717;28;20264;-70
2022/06/05 07:24:56;;;;;;;17.70;15.80;;;16.80;99.90;;;;;;5011668;28;20514;-73
2022/06/05 07:27:22;;;;;;;17.30;15.57;;;16.80;99.90;;;;;;5010767;28;20416;-73
2022/06/05 07:29:47;;;;;;;17.13;15.60;;;16.70;99.90;;;;;;5011761;28;20180;-73
2022/06/05 07:32:14;;;;;;;16.23;14.53;;;16.70;99.90;;;;;;5010375;28;20453;-72
2022/06/05 07:34:40;;;;;;;19.13;14.60;;;16.70;99.90;;;;;;5011110;28;20175;-72
2022/06/05 07:37:05;;;;;;;18.43;16.43;;;16.80;99.90;;;;;;5011417;28;20433;-72
2022/06/05 07:39:31;;;;;;;16.83;14.57;;;16.80;99.90;;;;;;5011351;28;20443;-70
2022/06/05 07:41:59;;;;;;;19.20;14.57;;;16.80;99.90;;;;;;5010856;28;20701;-72
2022/06/05 07:44:26;;;;;;;15.77;14.23;;;16.80;99.90;;;;;;5010648;28;20178;-73
2022/06/05 07:46:52;;;;;;;16.23;14.47;;;16.80;99.90;;;;;;5011228;28;20428;-72
2022/06/05 07:49:18;;;;;;;17.77;15.90;;;16.80;99.90;;;;;;5010866;28;20436;-73
2022/06/05 07:54:28;;;;;;;19.10;16.27;;;16.80;99.90;;;;;;5011122;28;20423;-72
2022/06/05 07:56:57;;;;;;;18.20;15.40;;;16.80;99.90;;;;;;5011050;28;20428;-72
2022/06/05 07:59:24;;;;;;;20.50;16.37;;;16.80;99.90;;;;;;5010487;28;20793;-72
2022/06/05 08:01:50;;;;;;;17.23;15.53;;;16.90;99.90;;;;;;5010471;28;20464;-71
2022/06/05 08:04:15;;;;;;;15.30;13.80;;;16.90;99.90;;;;;;5010768;28;20472;-71
2022/06/05 08:06:41;;;;;;;19.77;17.83;;;16.90;99.90;;;;;;5011327;28;20414;-73
2022/06/05 08:09:07;;;;;;;16.90;14.80;;;17.00;99.90;;;;;;5010481;28;20175;-73
2022/06/05 08:11:33;;;;;;;18.63;13.83;;;17.20;99.90;;;;;;5010311;28;20297;-73
2022/06/05 08:14:00;;;;;;;12.90;11.03;;;17.20;99.90;;;;;;5010862;28;20509;-72
2022/06/05 08:16:26;;;;;;;9.20;8.30;;;17.40;99.90;;;;;;5010799;28;20186;-72
2022/06/05 08:18:54;;;;;;;8.70;7.77;;;17.40;99.90;;;;;;5010911;28;20792;-73
2022/06/05 08:21:20;;;;;;;7.47;6.50;;;17.50;99.90;;;;;;5009701;28;20528;-72
2022/06/05 08:23:46;;;;;;;8.70;7.90;;;17.70;99.90;;;;;;5010784;28;20561;-73
2022/06/05 08:26:12;;;;;;;4.70;4.30;;;17.80;99.90;;;;;;5010835;28;20210;-70
2022/06/05 08:28:37;;;;;;;4.47;4.07;;;18.00;99.90;;;;;;5010942;28;20628;-71
2022/06/05 08:31:04;;;;;;;4.43;4.03;;;18.10;99.90;;;;;;5009917;28;20543;-73
2022/06/05 08:33:30;;;;;;;3.70;3.40;;;18.30;99.90;;;;;;5010482;28;20183;-70
2022/06/05 08:35:56;;;;;;;3.73;3.40;;;18.50;99.90;;;;;;5010807;28;20417;-72
2022/06/05 08:41:27;;;;;;;4.40;3.20;;;18.90;99.90;;;;;;5009939;28;20796;-73
2022/06/05 08:44:06;;;;;;;2.90;2.70;;;19.10;99.90;;;;;;5009993;28;20808;-70
2022/06/05 08:46:41;;;;;;;3.57;3.17;;;19.30;99.90;;;;;;5010650;28;20433;-71
2022/06/05 08:49:14;;;;;;;3.30;3.03;;;19.50;99.90;;;;;;5010322;28;20410;-72
2022/06/05 08:52:01;;;;;;;6.37;2.17;;;19.60;99.90;;;;;;5010139;28;20444;-72
2022/06/05 08:54:50;;;;;;;2.23;2.13;;;19.70;99.90;;;;;;5009899;28;20410;-72
2022/06/05 08:57:27;;;;;;;4.03;2.07;;;19.90;99.90;;;;;;5010615;28;20410;-73
2022/06/05 09:00:19;;;;;;;1.73;1.63;;;20.10;99.90;;;;;;5010568;28;20437;-73
2022/06/05 09:03:13;;;;;;;2.20;2.00;;;20.50;99.90;;;;;;5009829;28;21013;-72
2022/06/05 09:05:43;;;;;;;1.97;1.87;;;21.20;99.90;;;;;;5009745;28;20833;-73
2022/06/05 09:08:19;;;;;;;2.50;1.70;;;21.60;99.90;;;;;;5010092;28;20410;-73
2022/06/05 09:10:48;;;;;;;1.63;1.30;;;21.60;99.90;;;;;;5009503;28;20509;-73
2022/06/05 09:13:43;;;;;;;4.93;1.80;;;21.50;99.90;;;;;;5009807;28;20425;-71
2022/06/05 09:16:23;;;;;;;1.77;1.67;;;21.30;99.90;;;;;;5008824;28;20440;-71
2022/06/05 09:18:49;;;;;;;2.13;1.90;;;21.40;99.90;;;;;;5013773;28;20441;-71
2022/06/05 09:21:42;;;;;;;2.80;1.60;;;21.40;99.90;;;;;;5011314;28;20488;-72
2022/06/05 09:24:23;;;;;;;3.83;1.50;;;21.30;99.90;;;;;;5007869;28;20245;-71
2022/06/05 09:27:02;;;;;;;8.40;1.33;;;21.30;99.90;;;;;;5013549;28;20410;-73
2022/06/05 09:29:30;;;;;;;3.60;1.90;;;21.30;99.90;;;;;;5013350;28;20421;-72
2022/06/05 09:32:13;;;;;;;4.83;1.30;;;21.50;99.90;;;;;;5012237;28;20955;-72
2022/06/05 09:34:46;;;;;;;2.03;1.43;;;21.70;99.90;;;;;;5013482;28;20421;-72
2022/06/05 09:37:21;;;;;;;3.80;1.80;;;21.80;99.90;;;;;;5013164;28;20417;-71
2022/06/05 09:39:57;;;;;;;2.67;1.67;;;22.00;99.90;;;;;;5013372;28;20409;-73
2022/06/05 09:42:56;;;;;;;6.50;1.77;;;22.70;99.90;;;;;;5011966;28;20457;-72
2022/06/05 09:45:41;;;;;;;1.20;1.20;;;23.60;99.90;;;;;;5013179;28;20413;-71
2022/06/05 09:48:36;;;;;;;1.37;1.27;;;24.00;99.90;;;;;;5013177;28;20421;-72
2022/06/05 09:51:06;;;;;;;2.03;1.40;;;23.90;99.90;;;;;;5012557;28;20493;-72
2022/06/05 09:53:39;;;;;;;1.07;1.07;;;23.70;99.90;;;;;;5012342;28;20505;-71
2022/06/05 09:56:22;;;;;;;3.00;1.50;;;23.40;99.90;;;;;;5013137;28;20409;-72
2022/06/05 09:58:52;;;;;;;2.57;1.00;;;23.10;99.90;;;;;;5013617;28;20981;-73
2022/06/05 10:01:46;;;;;;;2.57;1.17;;;22.80;99.90;;;;;;5011500;28;20433;-72
2022/06/05 10:04:12;;;;;;;2.20;1.20;;;23.00;99.90;;;;;;5012687;28;20461;-72
2022/06/05 10:06:45;;;;;;;3.17;1.10;;;23.80;99.90;;;;;;5012832;28;20764;-72
2022/06/05 10:09:19;;;;;;;2.10;1.43;;;24.40;99.90;;;;;;5012675;28;20185;-73
2022/06/05 10:12:03;;;;;;;4.70;1.20;;;24.50;99.90;;;;;;5011603;28;20441;-73
2022/06/05 10:14:51;;;;;;;1.60;0.90;;;24.80;99.90;;;;;;5012413;28;20898;-72
2022/06/05 10:17:24;;;;;;;1.23;1.03;;;24.90;99.90;;;;;;5012468;28;20793;-72
2022/06/05 10:20:12;;;;;;;20.93;1.33;;;24.90;99.90;;;;;;5012712;28;20421;-70
2022/06/05 10:22:57;;;;;;;5.13;1.27;;;24.60;99.90;;;;;;5011648;28;20449;-72
2022/06/05 10:25:54;;;;;;;2.93;1.40;;;24.20;99.90;;;;;;5011928;28;20418;-73
2022/06/05 10:28:24;;;;;;;3.67;1.27;;;23.90;99.90;;;;;;5011148;28;20416;-71
2022/06/05 10:31:08;;;;;;;1.60;1.30;;;23.60;99.90;;;;;;5011486;28;20956;-70
2022/06/05 10:33:39;;;;;;;2.80;1.37;;;23.50;99.90;;;;;;5011590;28;20523;-72
2022/06/05 10:36:17;;;;;;;2.43;1.17;;;23.30;99.90;;;;;;5012287;28;20432;-71
2022/06/05 10:39:10;;;;;;;2.33;1.50;;;23.20;99.90;;;;;;5012157;28;20508;-70
2022/06/05 10:42:02;;;;;;;3.50;1.40;;;23.10;99.90;;;;;;5011363;28;20824;-72
2022/06/05 10:44:35;;;;;;;1.97;1.70;;;22.80;99.90;;;;;;5011387;28;20525;-72
2022/06/05 10:47:44;;;;;;;2.93;2.33;;;22.60;99.90;;;;;;5012110;28;20421;-70
2022/06/05 10:50:28;;;;;;;20.37;12.00;;;22.50;99.90;;;;;;4970343;28;20435;-71
2022/06/05 10:53:13;;;;;;;8.97;6.07;;;22.40;99.90;;;;;;4970237;28;20487;-71
2022/06/05 10:55:42;;;;;;;3.27;2.60;;;22.10;99.90;;;;;;5001708;28;20933;-71
2022/06/05 10:58:16;;;;;;;7.47;3.63;;;21.80;99.90;;;;;;5011621;28;20476;-72
2022/06/05 11:01:19;;;;;;;5.43;3.13;;;21.50;99.90;;;;;;5010632;28;21246;-72
2022/06/05 11:04:09;;;;;;;4.23;3.73;;;21.30;99.90;;;;;;5011926;28;20491;-72
2022/06/05 11:07:15;;;;;;;4.10;3.70;;;21.00;99.90;;;;;;5010372;28;21087;-71
2022/06/05 11:09:54;;;;;;;7.97;4.40;;;20.90;99.90;;;;;;5011765;28;20425;-72
2022/06/05 11:15:39;;;;;;;5.30;3.43;;;20.80;99.90;;;;;;5010988;28;20420;-72
2022/06/05 11:18:25;;;;;;;6.87;3.60;;;20.70;99.90;;;;;;5011767;28;20512;-71
2022/06/05 11:20:55;;;;;;;6.27;4.93;;;20.70;99.90;;;;;;5010869;28;20504;-70
2022/06/05 11:23:26;;;;;;;7.37;4.23;;;20.70;99.90;;;;;;5011266;28;20805;-72
2022/06/05 11:25:59;;;;;;;5.40;4.17;;;20.70;99.90;;;;;;5011678;28;20833;-70
2022/06/05 11:28:57;;;;;;;4.73;4.00;;;20.60;99.90;;;;;;5010887;28;20409;-72
2022/06/05 11:31:32;;;;;;;5.30;3.80;;;20.60;99.90;;;;;;5010333;28;20519;-72
2022/06/05 11:34:27;;;;;;;4.57;3.80;;;20.60;99.90;;;;;;5011494;28;20967;-71
2022/06/05 11:36:55;;;;;;;4.30;3.90;;;20.60;99.90;;;;;;5011330;28;20979;-72
2022/06/05 11:39:34;;;;;;;4.10;3.53;;;20.50;99.90;;;;;;5010513;28;20417;-72
2022/06/05 11:42:30;;;;;;;4.90;3.80;;;20.50;99.90;;;;;;5010567;28;20492;-70
2022/06/05 11:45:34;;;;;;;4.37;3.97;;;20.60;99.90;;;;;;5011473;28;20468;-72
2022/06/05 11:48:28;;;;;;;3.73;3.13;;;20.70;99.90;;;;;;5011210;28;20425;-69
2022/06/05 11:50:59;;;;;;;3.50;3.10;;;20.80;99.90;;;;;;5011012;28;20405;-71
2022/06/05 11:53:46;;;;;;;5.00;2.30;;;21.10;99.90;;;;;;5012843;28;20410;-72
2022/06/05 11:56:39;;;;;;;5.60;2.43;;;21.40;99.90;;;;;;5011143;28;20463;-72
2022/06/05 11:59:39;;;;;;;3.10;2.70;;;21.80;99.90;;;;;;5011116;28;20405;-70
2022/06/05 12:02:08;;;;;;;4.70;2.80;;;22.10;99.90;;;;;;5009445;28;20476;-72
2022/06/05 12:04:54;;;;;;;5.57;2.70;;;22.40;99.90;;;;;;5011017;28;20417;-72
2022/06/05 12:07:20;;;;;;;3.67;2.83;;;22.50;99.90;;;;;;5010635;28;20474;-72
2022/06/05 12:09:53;;;;;;;3.20;2.13;;;23.00;99.90;;;;;;5010733;28;20434;-72
2022/06/05 12:12:35;;;;;;;4.40;2.30;;;23.10;99.90;;;;;;5009282;28;20429;-72
2022/06/05 12:15:27;;;;;;;2.70;2.50;;;23.20;99.90;;;;;;5010833;28;20941;-70
2022/06/05 12:18:29;;;;;;;5.07;3.00;;;23.30;99.90;;;;;;5005202;28;20441;-72
2022/06/05 12:21:17;;;;;;;3.37;2.90;;;23.30;99.90;;;;;;5004105;28;20425;-72
2022/06/05 12:23:57;;;;;;;4.40;2.53;;;23.40;99.90;;;;;;5009979;28;20511;-72
2022/06/05 12:26:32;;;;;;;3.40;2.13;;;23.40;99.90;;;;;;5010464;28;20410;-72
2022/06/05 12:29:33;;;;;;;8.20;2.40;;;23.60;99.90;;;;;;5010760;28;20527;-71
2022/06/05 12:32:09;;;;;;;2.50;2.17;;;23.80;99.90;;;;;;5009503;28;20544;-72
2022/06/05 12:34:48;;;;;;;3.80;2.17;;;24.00;99.90;;;;;;5013360;28;20845;-72
2022/06/05 12:37:21;;;;;;;5.90;2.00;;;23.90;99.90;;;;;;5011689;28;20501;-71
2022/06/05 12:39:51;;;;;;;7.30;1.97;;;23.90;99.90;;;;;;5010642;28;20444;-72
2022/06/05 12:42:44;;;;;;;2.20;1.70;;;23.90;99.90;;;;;;5009837;28;20445;-70
2022/06/05 12:45:24;;;;;;;3.40;1.93;;;24.10;99.90;;;;;;5009771;28;20934;-70
2022/06/05 12:48:21;;;;;;;4.53;1.50;;;24.20;99.90;;;;;;5010714;28;20532;-72
2022/06/05 12:50:54;;;;;;;3.73;2.13;;;24.20;99.90;;;;;;5009959;28;20497;-72
2022/06/05 12:53:43;;;;;;;2.40;1.60;;;24.30;99.90;;;;;;5014137;28;20421;-71
2022/06/05 12:56:27;;;;;;;3.93;2.17;;;24.30;99.90;;;;;;5013764;28;20987;-72
2022/06/05 12:58:55;;;;;;;5.63;2.07;;;24.20;99.90;;;;;;5014218;28;20937;-71
2022/06/05 13:01:26;;;;;;;4.30;1.50;;;24.40;99.90;;;;;;5013297;28;20516;-71
2022/06/05 13:04:26;;;;;;;2.97;1.70;;;24.40;99.90;;;;;;5013651;28;21037;-72
2022/06/05 13:07:17;;;;;;;2.70;1.60;;;24.20;99.90;;;;;;5014109;28;20416;-71
2022/06/05 13:09:45;;;;;;;2.97;1.70;;;24.30;99.90;;;;;;5013829;28;20917;-72
2022/06/05 13:12:27;;;;;;;4.80;1.83;;;24.40;99.90;;;;;;5013134;28;20426;-70
2022/06/05 13:15:13;;;;;;;3.90;2.10;;;24.50;99.90;;;;;;5013237;28;20401;-73
2022/06/05 13:17:47;;;;;;;3.37;1.47;;;24.50;99.90;;;;;;5015670;28;20891;-72
2022/06/05 13:20:21;;;;;;;6.63;1.67;;;24.50;99.90;;;;;;5014845;28;20787;-71
2022/06/05 13:22:59;;;;;;;5.63;1.20;;;24.50;99.90;;;;;;5012293;28;20519;-72
2022/06/05 13:25:59;;;;;;;5.70;1.70;;;24.40;99.90;;;;;;5013469;28;20417;-72
2022/06/05 13:28:36;;;;;;;2.83;1.57;;;24.20;99.90;;;;;;5013531;28;20441;-72
2022/06/05 13:31:26;;;;;;;4.80;2.87;;;24.00;99.90;;;;;;5013047;28;20437;-69
2022/06/05 13:34:16;;;;;;;6.80;2.40;;;24.10;99.90;;;;;;5014062;28;20409;-69
2022/06/05 13:36:59;;;;;;;5.00;2.93;;;24.20;99.90;;;;;;5013013;28;20553;-70
2022/06/05 13:39:29;;;;;;;5.40;2.87;;;24.20;99.90;;;;;;5013339;28;20521;-70
2022/06/05 13:42:17;;;;;;;5.17;2.43;;;24.50;99.90;;;;;;5012770;28;20495;-70
2022/06/05 13:44:51;;;;;;;3.93;1.90;;;24.60;99.90;;;;;;5013404;28;20420;-70
2022/06/05 13:47:35;;;;;;;4.67;2.17;;;24.60;99.90;;;;;;5013093;28;20558;-70
2022/06/05 13:50:36;;;;;;;4.90;2.10;;;24.50;99.90;;;;;;5011921;28;20997;-70
2022/06/05 13:53:32;;;;;;;3.50;1.90;;;24.50;99.90;;;;;;5013587;28;20429;-70
2022/06/05 13:56:09;;;;;;;5.40;4.90;;;24.60;99.90;;;;;;5013209;28;20444;-69
2022/06/05 13:58:43;;;;;;;6.50;3.33;;;24.80;99.90;;;;;;5012432;28;20493;-70
2022/06/05 14:01:14;;;;;;;4.23;2.40;;;24.90;99.90;;;;;;5012435;28;20988;-70
2022/06/05 14:03:50;;;;;;;10.97;2.00;;;24.90;99.90;;;;;;5012861;28;20453;-70
2022/06/05 14:06:26;;;;;;;3.17;1.10;;;24.90;99.90;;;;;;5012776;28;20545;-70
2022/06/05 14:09:03;;;;;;;2.57;1.63;;;24.60;99.90;;;;;;5012855;28;20405;-69
2022/06/05 14:11:44;;;;;;;0.87;0.80;;;24.30;99.90;;;;;;5011943;28;20854;-68
2022/06/05 14:14:10;;;;;;;3.47;0.80;;;23.90;99.90;;;;;;5012170;28;20433;-69
2022/06/05 14:16:45;;;;;;;2.60;0.90;;;23.40;99.90;;;;;;5012851;28;20512;-72
2022/06/05 14:19:29;;;;;;;1.00;0.90;;;23.00;99.90;;;;;;5012400;28;20416;-69
2022/06/05 14:22:00;;;;;;;2.60;0.80;;;22.60;99.90;;;;;;5011851;28;20430;-71
2022/06/05 14:24:35;;;;;;;1.47;1.37;;;22.50;99.90;;;;;;5012396;28;20501;-73
2022/06/05 14:27:04;;;;;;;0.70;0.70;;;22.20;99.90;;;;;;5012034;28;20420;-72
2022/06/05 14:29:51;;;;;;;3.37;1.03;;;22.10;99.90;;;;;;5012132;28;20409;-69
2022/06/05 14:32:34;;;;;;;3.20;1.20;;;22.20;99.90;;;;;;5011840;28;20503;-71
2022/06/05 14:35:20;;;;;;;1.50;1.20;;;22.20;99.90;;;;;;5012024;28;20432;-73
2022/06/05 14:37:45;;;;;;;2.97;1.20;;;22.20;99.90;;;;;;5012368;28;20417;-72
2022/06/05 14:40:17;;;;;;;5.50;1.90;;;22.10;99.90;;;;;;5011623;28;20413;-71
2022/06/05 14:42:57;;;;;;;7.50;1.57;;;22.00;99.90;;;;;;5011284;28;20420;-72
2022/06/05 14:45:32;;;;;;;1.37;1.27;;;21.80;99.90;;;;;;5011390;28;20409;-73
2022/06/05 14:48:18;;;;;;;2.17;2.00;;;21.80;99.90;;;;;;5012237;28;20437;-72
2022/06/05 14:51:06;;;;;;;3.23;1.30;;;21.80;99.90;;;;;;5011431;28;20409;-71
2022/06/05 14:53:56;;;;;;;1.90;1.30;;;21.90;99.90;;;;;;5010084;28;20428;-71
2022/06/05 14:59:51;;;;;;;3.63;2.03;;;22.10;99.90;;;;;;5011348;28;20471;-72
2022/06/05 15:02:28;;;;;;;5.13;1.27;;;22.30;99.90;;;;;;5010993;28;20445;-71